Time;durP1;ratioP1;P1;durP2;ratioP2;P2;SDS_P1;SDS_P2;PMS_P1;PMS_P2;Temp;Humidity;BMP_temperature;BMP_pressure;BME280_temperature;BME280_humidity;BME280_pressure;Samples;Min_cycle;Max_cycle;Signal;HPM_P1;HPM_P2
2023/12/20 00:04:25;;;;;;;20.95;17.10;;;;;;;4.30;100.00;101139.16;10453916;28;20052;-83
2023/12/20 00:09:26;;;;;;;19.92;17.70;;;;;;;4.24;100.00;101120.91;10453960;28;20033;-83
2023/12/20 00:14:26;;;;;;;21.45;17.52;;;;;;;4.30;100.00;101125.53;10420396;28;20063;-82
2023/12/20 00:19:26;;;;;;;20.23;18.05;;;;;;;3.95;100.00;101071.19;10420157;28;20041;-83
2023/12/20 00:24:27;;;;;;;20.85;17.20;;;;;;;4.32;100.00;101119.84;10435860;28;20033;-85
2023/12/20 00:29:28;;;;;;;26.27;17.50;;;;;;;4.14;100.00;101085.88;10441613;28;20492;-84
2023/12/20 00:34:28;;;;;;;18.92;15.40;;;;;;;4.20;100.00;101101.41;10431334;28;20037;-84
2023/12/20 00:39:28;;;;;;;17.70;16.08;;;;;;;4.28;100.00;101099.50;10452373;28;20089;-84
2023/12/20 00:44:29;;;;;;;16.40;14.60;;;;;;;4.38;100.00;101108.13;10419021;28;20039;-82
2023/12/20 00:49:29;;;;;;;20.70;15.90;;;;;;;4.36;100.00;101107.50;10453756;28;20040;-84
2023/12/20 00:54:30;;;;;;;18.70;14.27;;;;;;;4.45;100.00;101114.44;10453627;28;20056;-84
2023/12/20 00:59:31;;;;;;;21.83;14.40;;;;;;;4.42;100.00;101099.34;10452897;28;20075;-84
2023/12/20 01:04:31;;;;;;;22.90;14.48;;;;;;;4.50;100.00;101103.75;10434937;28;20049;-86
2023/12/20 01:09:32;;;;;;;15.48;13.90;;;;;;;4.58;100.00;101092.63;10435689;28;20240;-83
2023/12/20 01:14:32;;;;;;;16.05;12.95;;;;;;;4.59;100.00;101086.13;10454562;28;20060;-83
2023/12/20 01:19:33;;;;;;;31.50;14.60;;;;;;;4.60;100.00;101078.78;10453938;28;20527;-85
2023/12/20 01:24:33;;;;;;;14.68;12.80;;;;;;;4.57;100.00;101074.59;10434829;28;20423;-84
2023/12/20 01:29:34;;;;;;;19.77;14.73;;;;;;;4.62;100.00;101074.81;10453091;28;20330;-85
2023/12/20 01:34:34;;;;;;;16.83;13.45;;;;;;;4.63;100.00;101079.22;10459864;28;20512;-85
2023/12/20 01:39:35;;;;;;;22.80;12.68;;;;;;;4.62;100.00;101066.63;10460291;28;20045;-85
2023/12/20 01:44:35;;;;;;;30.67;14.70;;;;;;;4.59;100.00;101050.69;10429871;28;20033;-79
2023/12/20 01:49:36;;;;;;;35.13;14.07;;;;;;;4.70;100.00;101053.84;10426071;28;20060;-87
2023/12/20 01:54:37;;;;;;;22.50;14.10;;;;;;;4.81;100.00;101075.84;10409529;28;20049;-87
2023/12/20 01:59:39;;;;;;;21.08;11.82;;;;;;;4.79;100.00;101066.19;10409646;28;20071;-84
2023/12/20 02:04:39;;;;;;;17.88;11.90;;;;;;;4.85;100.00;101059.88;10419513;28;20495;-85
2023/12/20 02:09:39;;;;;;;16.70;11.85;;;;;;;4.84;100.00;101033.66;10442015;28;20052;-85
2023/12/20 02:14:40;;;;;;;30.40;17.42;;;;;;;4.99;100.00;101058.81;10425723;28;20404;-91
2023/12/20 02:19:40;;;;;;;16.40;14.90;;;;;;;4.97;100.00;101058.19;10442984;28;20064;-85
2023/12/20 02:24:41;;;;;;;14.63;13.20;;;;;;;4.83;100.00;101038.28;10459916;28;20045;-91
2023/12/20 02:29:44;;;;;;;23.60;16.40;;;;;;;4.88;100.00;101056.75;10409867;28;20484;-90
2023/12/20 02:34:47;;;;;;;17.10;15.18;;;;;;;4.93;100.00;101046.03;10421758;28;20045;-89
2023/12/20 02:39:47;;;;;;;15.23;13.65;;;;;;;4.52;100.00;100978.94;10441437;28;20065;-94
2023/12/20 02:44:48;;;;;;;23.35;14.10;;;;;;;4.81;100.00;101025.91;10408829;28;20044;-93
2023/12/20 02:49:49;;;;;;;17.00;15.40;;;;;;;4.79;100.00;101022.53;10418836;28;20036;-94
2023/12/20 02:54:49;;;;;;;17.17;15.05;;;;;;;4.75;100.00;101021.28;10448688;28;20064;-92
2023/12/20 02:59:50;;;;;;;17.42;15.60;;;;;;;4.64;100.00;101001.78;10411788;28;20048;-87
2023/12/20 03:04:50;;;;;;;22.65;15.88;;;;;;;4.68;100.00;100999.50;10437822;28;20872;-91
2023/12/20 03:09:50;;;;;;;22.58;16.08;;;;;;;4.76;100.00;101003.88;10437425;28;20041;-88
2023/12/20 03:14:51;;;;;;;35.72;20.50;;;;;;;4.88;100.00;101004.91;10420548;28;20045;-85
2023/12/20 03:19:51;;;;;;;21.08;18.95;;;;;;;4.90;100.00;100997.34;10436358;28;20040;-93
2023/12/20 03:24:52;;;;;;;24.92;18.30;;;;;;;4.77;100.00;100986.47;10457776;28;20033;-93
2023/12/20 03:29:52;;;;;;;23.92;18.88;;;;;;;4.68;100.00;100977.69;10439292;28;20436;-92
2023/12/20 03:34:53;;;;;;;31.88;18.60;;;;;;;4.56;100.00;100972.03;10424862;28;20040;-95
2023/12/20 03:39:53;;;;;;;28.38;19.38;;;;;;;4.47;100.00;100967.03;10449318;28;20033;-92
2023/12/20 03:44:54;;;;;;;28.35;21.15;;;;;;;4.59;100.00;100952.53;10442190;28;20059;-86
2023/12/20 03:49:54;;;;;;;27.98;20.00;;;;;;;4.82;100.00;100973.03;10440148;28;20053;-91
2023/12/20 03:54:55;;;;;;;33.38;20.23;;;;;;;4.93;100.00;100936.91;10456229;28;20041;-95
2023/12/20 03:59:55;;;;;;;25.98;19.75;;;;;;;4.99;100.00;100946.94;10432213;28;20061;-88
2023/12/20 04:04:56;;;;;;;35.97;18.30;;;;;;;5.09;100.00;100940.22;10455597;28;20477;-92
2023/12/20 04:09:56;;;;;;;29.58;17.52;;;;;;;5.15;100.00;100944.81;10422621;28;20033;-88
2023/12/20 04:14:57;;;;;;;33.17;17.73;;;;;;;5.14;100.00;100933.03;10456152;28;20061;-90
2023/12/20 04:19:57;;;;;;;26.38;17.58;;;;;;;5.13;100.00;100941.44;10428031;28;20033;-92
2023/12/20 04:24:58;;;;;;;28.30;17.45;;;;;;;5.08;100.00;100927.59;10420447;28;20041;-94
2023/12/20 04:29:58;;;;;;;34.78;17.02;;;;;;;5.10;100.00;100931.78;10429837;28;20042;-83
2023/12/20 04:34:59;;;;;;;32.72;14.85;;;;;;;5.11;100.00;100944.38;10454813;28;20071;-88
2023/12/20 04:39:59;;;;;;;32.35;17.17;;;;;;;5.03;100.00;100931.81;10456135;28;20048;-92
2023/12/20 04:45:00;;;;;;;29.35;18.30;;;;;;;4.97;100.00;100940.88;10455680;28;20087;-89
2023/12/20 04:50:00;;;;;;;29.35;14.20;;;;;;;4.95;100.00;100891.13;10411441;28;20037;-85
2023/12/20 04:55:01;;;;;;;31.08;16.38;;;;;;;5.10;100.00;100903.66;10434921;28;20542;-82
2023/12/20 05:00:01;;;;;;;26.67;13.38;;;;;;;5.30;100.00;100930.88;10432102;28;20037;-85
2023/12/20 05:05:02;;;;;;;24.67;13.02;;;;;;;5.46;100.00;100931.19;10427992;28;20033;-85
2023/12/20 05:10:04;;;;;;;24.02;12.00;;;;;;;5.53;100.00;100925.69;10404405;28;20040;-86
2023/12/20 05:15:06;;;;;;;26.50;11.07;;;;;;;5.62;100.00;100950.81;10428037;28;20041;-88
2023/12/20 05:20:07;;;;;;;25.67;10.43;;;;;;;5.63;100.00;100934.22;10455510;28;20048;-83
2023/12/20 05:25:08;;;;;;;31.05;11.52;;;;;;;5.68;100.00;100930.00;10461598;28;20080;-85
2023/12/20 05:30:08;;;;;;;33.80;12.00;;;;;;;5.68;100.00;100928.09;10435267;28;20036;-85
2023/12/20 05:35:09;;;;;;;22.55;12.75;;;;;;;5.70;100.00;100925.16;10444234;28;20119;-86
2023/12/20 05:40:10;;;;;;;24.35;13.35;;;;;;;5.32;100.00;100875.00;10462276;28;20056;-81
2023/12/20 05:45:11;;;;;;;35.35;12.55;;;;;;;5.63;100.00;100923.31;10462275;28;20095;-87
2023/12/20 05:50:11;;;;;;;33.72;14.80;;;;;;;5.59;100.00;100904.84;10457352;28;20045;-86
2023/12/20 05:55:11;;;;;;;24.33;12.52;;;;;;;5.75;100.00;100926.16;10460073;28;20535;-82
2023/12/20 06:00:13;;;;;;;34.22;12.18;;;;;;;5.74;100.00;100899.91;10447197;28;20404;-85
2023/12/20 06:05:13;;;;;;;24.38;10.07;;;;;;;5.65;100.00;100835.69;10437847;28;20515;-84
2023/12/20 06:10:14;;;;;;;31.83;12.75;;;;;;;5.84;100.00;100902.97;10442675;28;20037;-80
2023/12/20 06:15:14;;;;;;;26.90;12.02;;;;;;;5.85;100.00;100876.50;10425429;28;20709;-83
2023/12/20 06:20:15;;;;;;;26.00;10.23;;;;;;;5.91;100.00;100882.94;10433789;28;20178;-79
2023/12/20 06:25:16;;;;;;;31.45;9.63;;;;;;;5.98;100.00;100889.25;10457639;28;20117;-80
2023/12/20 06:30:16;;;;;;;27.75;11.65;;;;;;;5.85;100.00;100857.38;10456130;28;20091;-89
2023/12/20 06:35:17;;;;;;;24.73;12.88;;;;;;;5.95;100.00;100890.50;10440133;28;20044;-87
2023/12/20 06:40:17;;;;;;;23.02;10.88;;;;;;;5.94;100.00;100883.34;10440198;28;20044;-87
2023/12/20 06:45:18;;;;;;;31.60;12.82;;;;;;;6.03;100.00;100875.72;10424527;28;20041;-87
2023/12/20 06:50:18;;;;;;;38.97;13.95;;;;;;;5.98;100.00;100843.63;10457424;28;20037;-85
2023/12/20 06:55:19;;;;;;;24.00;12.68;;;;;;;6.01;100.00;100867.75;10438338;28;20047;-85
2023/12/20 07:00:20;;;;;;;31.70;13.38;;;;;;;5.96;100.00;100842.19;10453485;28;20045;-92
2023/12/20 07:05:21;;;;;;;40.10;16.33;;;;;;;6.00;100.00;100854.34;10407709;28;20041;-94
2023/12/20 07:10:22;;;;;;;27.50;10.73;;;;;;;6.03;100.00;100848.41;10424414;28;20083;-89
2023/12/20 07:15:23;;;;;;;34.05;15.13;;;;;;;6.10;100.00;100835.53;10418550;28;20041;-87
2023/12/20 07:20:23;;;;;;;25.33;10.88;;;;;;;6.09;100.00;100836.56;10434209;28;20331;-92
2023/12/20 07:25:23;;;;;;;17.55;10.07;;;;;;;5.77;100.00;100782.00;10459131;28;20064;-76
2023/12/20 07:30:24;;;;;;;30.05;10.80;;;;;;;6.15;100.00;100827.47;10430940;28;20033;-85
2023/12/20 07:35:25;;;;;;;31.48;11.38;;;;;;;6.18;100.00;100837.97;10437943;28;20045;-79
2023/12/20 07:40:25;;;;;;;33.17;10.70;;;;;;;6.22;100.00;100844.66;10438190;28;20045;-87
2023/12/20 07:45:26;;;;;;;26.85;9.75;;;;;;;6.27;100.00;100830.28;10456360;28;20044;-87
2023/12/20 07:50:27;;;;;;;25.40;10.75;;;;;;;6.32;100.00;100835.91;10418515;28;20041;-82
2023/12/20 07:55:27;;;;;;;19.25;8.43;;;;;;;6.31;100.00;100836.16;10454617;28;20037;-89
2023/12/20 08:00:28;;;;;;;29.85;10.98;;;;;;;6.48;100.00;100853.63;10411623;28;20124;-85
2023/12/20 08:05:28;;;;;;;28.85;8.10;;;;;;;6.56;100.00;100850.56;10436201;28;20037;-83
2023/12/20 08:10:29;;;;;;;21.98;6.95;;;;;;;6.44;100.00;100825.06;10436789;28;20052;-84
2023/12/20 08:15:30;;;;;;;26.08;7.88;;;;;;;6.64;100.00;100844.81;10436148;28;20041;-85
2023/12/20 08:20:30;;;;;;;30.65;6.97;;;;;;;6.65;100.00;100851.94;10436320;28;20045;-80
2023/12/20 08:25:31;;;;;;;26.20;7.80;;;;;;;6.62;100.00;100840.63;10450259;28;20038;-86
2023/12/20 08:30:32;;;;;;;21.50;6.22;;;;;;;6.72;100.00;100851.00;10447024;28;20107;-88
2023/12/20 08:35:33;;;;;;;28.40;7.60;;;;;;;6.74;100.00;100829.72;10419456;28;20438;-82
2023/12/20 08:40:33;;;;;;;24.08;6.50;;;;;;;6.80;100.00;100839.75;10436270;28;20067;-86
2023/12/20 08:45:34;;;;;;;18.65;6.75;;;;;;;6.87;100.00;100832.31;10457443;28;20056;-87
2023/12/20 08:50:34;;;;;;;28.98;6.22;;;;;;;6.93;100.00;100825.09;10428317;28;20033;-84
2023/12/20 08:55:35;;;;;;;19.92;7.18;;;;;;;7.13;100.00;100882.28;10461894;28;20037;-79
2023/12/20 09:00:35;;;;;;;14.30;12.80;;;;;;;5.64;100.00;100899.53;10449966;28;20041;-84
2023/12/20 09:05:36;;;;;;;18.40;17.20;;;;;;;4.91;100.00;100902.72;10460005;28;20037;-86
2023/12/20 09:10:37;;;;;;;18.98;17.90;;;;;;;4.68;100.00;100900.47;10429046;28;20052;-80
2023/12/20 09:15:37;;;;;;;20.88;19.60;;;;;;;4.46;100.00;100914.38;10455495;28;20037;-79
2023/12/20 09:20:38;;;;;;;20.70;18.80;;;;;;;4.44;100.00;100919.19;10455855;28;20542;-79
2023/12/20 09:25:38;;;;;;;19.20;17.73;;;;;;;4.42;100.00;100907.66;10456953;28;20033;-88
2023/12/20 09:30:39;;;;;;;20.17;18.67;;;;;;;4.50;100.00;100928.41;10443804;28;20033;-79
2023/12/20 09:35:40;;;;;;;18.05;17.02;;;;;;;4.58;100.00;100922.75;10472653;28;20037;-83
2023/12/20 09:40:41;;;;;;;17.38;16.02;;;;;;;4.56;100.00;100903.84;10423790;28;20037;-78
2023/12/20 09:45:42;;;;;;;16.58;15.40;;;;;;;4.61;100.00;100905.94;10435462;28;20044;-81
2023/12/20 09:50:42;;;;;;;14.10;13.10;;;;;;;4.61;100.00;100923.16;10436544;28;20044;-76
2023/12/20 09:55:43;;;;;;;16.65;14.75;;;;;;;4.57;100.00;100910.16;10441517;28;20066;-78
2023/12/20 10:00:43;;;;;;;15.67;14.00;;;;;;;4.60;100.00;100926.91;10429832;28;20120;-77
2023/12/20 10:05:44;;;;;;;17.23;12.32;;;;;;;4.59;100.00;100936.16;10419684;28;20033;-79
2023/12/20 10:10:44;;;;;;;14.70;13.35;;;;;;;4.78;100.00;100950.78;10425317;28;20455;-78
2023/12/20 10:15:45;;;;;;;14.60;8.98;;;;;;;4.83;100.00;100929.16;10458159;28;20053;-78
2023/12/20 10:20:45;;;;;;;11.15;9.02;;;;;;;4.91;100.00;100930.81;10420708;28;20048;-79
2023/12/20 10:25:56;;;;;;;12.10;9.23;;;;;;;4.80;100.00;100943.25;10442287;28;20041;-78
2023/12/20 10:30:56;;;;;;;12.25;7.63;;;;;;;4.79;100.00;100935.25;10452994;28;20041;-77
2023/12/20 10:35:57;;;;;;;18.90;9.10;;;;;;;4.87;100.00;100936.94;10441403;28;20052;-77
2023/12/20 10:41:00;;;;;;;10.93;7.13;;;;;;;4.83;100.00;100920.13;10451556;28;20059;-78
2023/12/20 10:46:01;;;;;;;11.68;7.22;;;;;;;4.91;100.00;100911.72;10451244;28;20397;-78
2023/12/20 10:51:01;;;;;;;12.40;6.90;;;;;;;4.97;100.00;100893.66;10405450;28;20063;-81
2023/12/20 10:56:02;;;;;;;13.52;6.60;;;;;;;5.21;100.00;100900.25;10440838;28;20512;-77
2023/12/20 11:01:02;;;;;;;10.07;5.95;;;;;;;5.36;100.00;100889.03;10441776;28;20482;-80
2023/12/20 11:06:19;;;;;;;16.05;5.05;;;;;;;5.45;100.00;100891.28;10442907;28;20385;-77
2023/12/20 11:11:37;;;;;;;10.88;5.53;;;;;;;5.61;100.00;100881.72;10437554;28;20086;-78
2023/12/20 11:16:38;;;;;;;11.93;4.45;;;;;;;5.71;100.00;100900.34;10457183;28;20500;-77
2023/12/20 11:21:38;;;;;;;9.25;4.38;;;;;;;5.78;100.00;100887.47;10453753;28;20039;-77
2023/12/20 11:26:39;;;;;;;16.42;5.55;;;;;;;5.72;100.00;100907.47;10425206;28;20033;-78
2023/12/20 11:31:47;;;;;;;19.95;5.70;;;;;;;5.63;100.00;100897.88;10593700;27;1281166;-79
2023/12/20 11:36:48;;;;;;;10.45;5.97;;;;;;;5.47;100.00;100889.16;10601868;27;20114;-79
2023/12/20 11:41:49;;;;;;;15.18;5.40;;;;;;;5.05;100.00;100820.56;10607303;27;20086;-79
2023/12/20 11:46:50;;;;;;;19.45;7.32;;;;;;;5.49;100.00;100890.84;10483886;23;20037;-80
2023/12/20 11:51:51;;;;;;;12.38;6.78;;;;;;;5.38;100.00;100878.75;10443824;28;20366;-78
2023/12/20 11:56:51;;;;;;;14.45;7.00;;;;;;;5.38;100.00;100876.84;10407529;28;20045;-78
2023/12/20 12:01:52;;;;;;;16.80;6.18;;;;;;;5.46;100.00;100873.84;10416406;28;20064;-78
2023/12/20 12:06:54;;;;;;;10.30;5.82;;;;;;;5.76;100.00;100870.47;10421986;28;20414;-79
2023/12/20 12:11:54;;;;;;;13.80;4.45;;;;;;;6.01;100.00;100856.00;10452619;28;20060;-79
2023/12/20 12:16:55;;;;;;;11.95;4.68;;;;;;;6.12;100.00;100868.94;10452257;28;20087;-79
2023/12/20 12:22:10;;;;;;;11.43;4.22;;;;;;;6.09;100.00;100850.22;10418601;28;20044;-79
2023/12/20 12:27:12;;;;;;;12.50;4.25;;;;;;;5.65;100.00;100797.44;10419900;28;20099;-79
2023/12/20 12:32:12;;;;;;;29.58;6.63;;;;;;;6.10;100.00;100835.53;10394565;28;20125;-80
2023/12/20 12:37:13;;;;;;;16.08;4.55;;;;;;;6.04;100.00;100817.28;10419280;28;20038;-83
2023/12/20 12:42:13;;;;;;;28.00;5.68;;;;;;;6.04;100.00;100829.06;10413342;28;20034;-82
2023/12/20 12:47:14;;;;;;;17.08;4.10;;;;;;;6.13;100.00;100831.50;10390064;28;20045;-86
2023/12/20 12:52:14;;;;;;;14.05;3.88;;;;;;;6.20;100.00;100838.56;10407030;28;20037;-89
2023/12/20 12:57:18;;;;;;;9.00;3.30;;;;;;;6.25;100.00;100835.97;10389848;28;20056;-84
2023/12/20 13:02:19;;;;;;;9.73;3.78;;;;;;;6.26;100.00;100815.78;10404213;28;20060;-82
2023/12/20 13:07:19;;;;;;;10.40;4.03;;;;;;;6.33;100.00;100823.09;10404417;28;20587;-85
2023/12/20 13:12:21;;;;;;;14.73;4.32;;;;;;;6.31;100.00;100811.53;10402565;28;20446;-83
2023/12/20 13:17:21;;;;;;;13.23;4.05;;;;;;;6.37;100.00;100835.25;10405149;28;20054;-82
2023/12/20 13:22:22;;;;;;;10.02;4.18;;;;;;;6.36;100.00;100841.75;10405542;28;20068;-83
2023/12/20 13:27:22;;;;;;;10.70;4.57;;;;;;;6.35;100.00;100834.63;10403784;28;20029;-85
2023/12/20 13:32:23;;;;;;;18.08;5.13;;;;;;;6.38;100.00;100829.53;10421271;28;20080;-82
2023/12/20 13:37:23;;;;;;;16.92;5.07;;;;;;;6.40;100.00;100815.63;10422208;28;20436;-83
2023/12/20 13:42:26;;;;;;;20.42;6.60;;;;;;;6.38;100.00;100817.75;10383638;28;20080;-84
2023/12/20 13:47:27;;;;;;;13.93;8.02;;;;;;;6.30;100.00;100827.09;10387935;28;20049;-86
2023/12/20 13:52:27;;;;;;;23.95;9.95;;;;;;;6.23;100.00;100827.16;10369996;28;20038;-84
2023/12/20 13:57:29;;;;;;;13.10;8.82;;;;;;;6.10;100.00;100815.53;10401068;28;20034;-86
2023/12/20 14:02:29;;;;;;;17.95;8.95;;;;;;;6.04;100.00;100817.28;10383911;28;21700;-86
2023/12/20 14:07:30;;;;;;;15.98;9.73;;;;;;;5.79;100.00;100785.34;10365302;28;20447;-87
2023/12/20 14:12:32;;;;;;;18.23;8.13;;;;;;;5.85;100.00;100797.28;10414883;28;20075;-84
2023/12/20 14:17:32;;;;;;;15.30;8.95;;;;;;;5.77;100.00;100801.13;10390862;28;20083;-83
2023/12/20 14:22:33;;;;;;;12.93;7.45;;;;;;;5.67;100.00;100811.72;10349133;28;20186;-87
2023/12/20 14:27:33;;;;;;;19.17;7.97;;;;;;;5.70;100.00;100824.09;10390361;28;20093;-80
2023/12/20 14:32:36;;;;;;;9.07;7.88;;;;;;;5.69;100.00;100801.41;10381362;28;20044;-81
2023/12/20 14:37:40;;;;;;;10.05;6.55;;;;;;;5.63;100.00;100799.56;10358479;28;20152;-84
2023/12/20 14:42:43;;;;;;;15.82;6.43;;;;;;;5.58;100.00;100796.66;10372090;28;20041;-85
2023/12/20 14:47:44;;;;;;;10.45;5.35;;;;;;;5.54;100.00;100809.09;10356808;28;20061;-83
2023/12/20 14:52:47;;;;;;;9.80;6.40;;;;;;;5.49;100.00;100787.91;10382467;28;20072;-84
2023/12/20 14:57:49;;;;;;;19.52;7.57;;;;;;;5.46;100.00;100794.66;10410681;28;20086;-85
2023/12/20 15:02:49;;;;;;;12.90;7.82;;;;;;;5.31;100.00;100780.47;10433088;28;20057;-82
2023/12/20 15:07:50;;;;;;;11.73;9.45;;;;;;;5.35;100.00;100795.38;10382685;28;20432;-79
2023/12/20 15:12:50;;;;;;;13.10;8.02;;;;;;;5.30;100.00;100806.13;10399700;28;20034;-87
2023/12/20 15:17:51;;;;;;;11.75;7.55;;;;;;;5.36;100.00;100799.78;10402447;28;20040;-82
2023/12/20 15:22:52;;;;;;;9.57;7.63;;;;;;;5.32;100.00;100776.72;10402915;28;21230;-93
2023/12/20 15:27:52;;;;;;;12.48;11.38;;;;;;;5.30;100.00;100784.28;10419423;28;20087;-93
2023/12/20 15:32:53;;;;;;;10.82;9.88;;;;;;;5.23;100.00;100778.88;10361693;28;20034;-95
2023/12/20 15:37:53;;;;;;;14.52;12.98;;;;;;;5.25;100.00;100792.31;10407877;28;20049;-91
2023/12/20 15:42:55;;;;;;;15.77;12.98;;;;;;;5.16;100.00;100779.97;10398140;28;20050;-91
2023/12/20 15:47:55;;;;;;;15.45;14.07;;;;;;;5.10;100.00;100767.22;10387343;28;20068;-94
2023/12/20 15:52:56;;;;;;;14.95;13.55;;;;;;;5.08;100.00;100744.78;10397015;28;20462;-91
2023/12/20 15:57:57;;;;;;;16.67;15.20;;;;;;;5.09;100.00;100751.91;10390434;28;20041;-90
2023/12/20 16:02:57;;;;;;;20.40;15.98;;;;;;;5.14;100.00;100752.06;10404098;28;20033;-92
2023/12/20 16:07:57;;;;;;;15.02;13.80;;;;;;;5.13;100.00;100755.88;10375307;28;20037;-88
2023/12/20 16:12:58;;;;;;;15.18;14.10;;;;;;;5.13;100.00;100750.41;10349457;28;20052;-88
2023/12/20 16:17:59;;;;;;;16.25;14.57;;;;;;;5.19;100.00;100749.53;10406869;28;20033;-89
2023/12/20 16:22:59;;;;;;;22.30;16.08;;;;;;;5.11;100.00;100709.69;10392368;28;20041;-88
2023/12/20 16:28:00;;;;;;;16.45;14.70;;;;;;;5.17;100.00;100697.06;10406489;28;20053;-88
2023/12/20 16:33:00;;;;;;;20.33;16.70;;;;;;;5.35;100.00;100705.28;10375931;28;20067;-86
2023/12/20 16:38:00;;;;;;;17.88;16.10;;;;;;;5.37;100.00;100703.16;10353866;28;20069;-88
2023/12/20 16:43:03;;;;;;;19.10;15.48;;;;;;;5.35;100.00;100688.91;10390434;28;20037;-87
2023/12/20 16:48:04;;;;;;;19.27;15.30;;;;;;;5.33;100.00;100663.72;10351636;28;20097;-87
2023/12/20 16:53:04;;;;;;;17.02;15.32;;;;;;;5.38;100.00;100661.16;10328257;28;20042;-89
2023/12/20 16:58:05;;;;;;;24.05;15.10;;;;;;;5.49;100.00;100656.00;10351941;28;20497;-80
2023/12/20 17:03:06;;;;;;;17.75;15.32;;;;;;;5.56;100.00;100651.31;10385907;28;20048;-87
2023/12/20 17:08:07;;;;;;;21.58;16.45;;;;;;;5.52;100.00;100629.09;10401031;28;20101;-92
2023/12/20 17:13:07;;;;;;;19.63;16.55;;;;;;;5.59;100.00;100629.84;10390701;28;20053;-90
2023/12/20 17:18:08;;;;;;;19.33;15.23;;;;;;;5.61;100.00;100613.25;10401576;28;20041;-95
2023/12/20 17:23:08;;;;;;;20.42;18.02;;;;;;;5.57;100.00;100603.84;10418801;28;20080;-91
2023/12/20 17:28:09;;;;;;;21.90;14.85;;;;;;;5.55;100.00;100590.41;10399782;28;20056;-91
2023/12/20 17:33:09;;;;;;;23.65;16.02;;;;;;;5.64;100.00;100585.47;10411741;28;20042;-89
2023/12/20 17:38:10;;;;;;;26.38;16.65;;;;;;;5.62;100.00;100573.94;10395841;28;20104;-88
2023/12/20 17:43:10;;;;;;;37.63;16.90;;;;;;;5.61;100.00;100555.91;10396637;28;20385;-84
2023/12/20 17:48:11;;;;;;;19.35;16.50;;;;;;;5.66;100.00;100542.38;10395516;28;20094;-87
2023/12/20 17:53:11;;;;;;;29.08;17.17;;;;;;;5.74;100.00;100535.75;10383940;28;20038;-86
2023/12/20 17:58:13;;;;;;;19.38;16.33;;;;;;;5.79;100.00;100514.06;10354046;28;20037;-86
2023/12/20 18:03:13;;;;;;;29.05;17.33;;;;;;;5.89;100.00;100494.34;10400759;28;20044;-84
2023/12/20 18:08:14;;;;;;;34.15;19.02;;;;;;;5.95;100.00;100474.34;10400031;28;20061;-83
2023/12/20 18:13:15;;;;;;;27.25;17.65;;;;;;;6.09;100.00;100469.50;10399804;28;20045;-83
2023/12/20 18:18:15;;;;;;;33.85;19.52;;;;;;;6.12;100.00;100445.28;10417709;28;20041;-85
2023/12/20 18:23:16;;;;;;;24.45;18.33;;;;;;;6.05;100.00;100406.28;10383176;28;20037;-84
2023/12/20 18:28:16;;;;;;;24.85;19.35;;;;;;;6.28;100.00;100423.78;10398932;28;20053;-85
2023/12/20 18:33:17;;;;;;;21.88;19.35;;;;;;;6.31;100.00;100417.84;10416309;28;20068;-83
2023/12/20 18:38:17;;;;;;;22.25;19.92;;;;;;;6.38;100.00;100411.16;10416861;28;20045;-84
2023/12/20 18:43:20;;;;;;;21.15;18.90;;;;;;;6.45;100.00;100398.22;10432094;28;20041;-81
2023/12/20 18:48:20;;;;;;;21.15;19.23;;;;;;;6.51;100.00;100380.03;10384880;28;20041;-82
2023/12/20 18:53:21;;;;;;;20.33;18.40;;;;;;;6.53;100.00;100366.94;10382326;28;20041;-81
2023/12/20 18:58:23;;;;;;;18.80;17.27;;;;;;;6.46;100.00;100333.41;10415476;28;20037;-79
2023/12/20 19:03:24;;;;;;;18.27;16.88;;;;;;;6.64;100.00;100360.63;10414725;28;20125;-77
2023/12/20 19:08:24;;;;;;;17.25;16.10;;;;;;;6.70;100.00;100350.63;10414360;28;20037;-77
2023/12/20 19:13:30;;;;;;;16.58;15.23;;;;;;;6.76;100.00;100341.44;10398259;28;20052;-75
2023/12/20 19:18:31;;;;;;;16.83;15.80;;;;;;;6.82;100.00;100331.41;10399978;28;20111;-76
2023/12/20 19:23:31;;;;;;;16.33;15.43;;;;;;;6.85;100.00;100314.53;10414189;28;20060;-74
2023/12/20 19:28:32;;;;;;;17.38;16.05;;;;;;;6.95;100.00;100306.53;10415507;28;20041;-79
2023/12/20 19:33:39;;;;;;;16.50;15.60;;;;;;;6.99;100.00;100294.00;10412542;28;20037;-76
2023/12/20 19:38:40;;;;;;;17.20;16.10;;;;;;;7.00;100.00;100275.66;10372888;28;20111;-76
2023/12/20 19:43:40;;;;;;;16.27;15.45;;;;;;;7.09;100.00;100279.69;10397950;28;20448;-76
2023/12/20 19:48:41;;;;;;;17.70;16.30;;;;;;;7.12;100.00;100275.63;10414562;28;20512;-75
2023/12/20 19:53:41;;;;;;;15.63;14.82;;;;;;;7.08;100.00;100256.13;10421867;28;20060;-75
2023/12/20 19:58:42;;;;;;;17.95;16.58;;;;;;;7.19;100.00;100254.38;10423433;28;20064;-75
2023/12/20 20:03:42;;;;;;;17.15;16.15;;;;;;;7.13;100.00;100267.19;10421984;28;20083;-76
2023/12/20 20:08:42;;;;;;;17.10;16.13;;;;;;;7.23;100.00;100250.91;10404055;28;20037;-76
2023/12/20 20:13:43;;;;;;;16.55;15.45;;;;;;;7.23;100.00;100252.81;10422660;28;20064;-73
2023/12/20 20:18:43;;;;;;;18.40;17.15;;;;;;;7.36;100.00;100263.47;10422367;28;20525;-74
2023/12/20 20:23:44;;;;;;;17.23;16.23;;;;;;;7.38;100.00;100258.56;10420462;28;20037;-78
2023/12/20 20:28:46;;;;;;;17.95;16.65;;;;;;;7.42;100.00;100243.28;10419998;28;20040;-75
2023/12/20 20:33:46;;;;;;;17.65;16.60;;;;;;;7.37;100.00;100224.03;10437236;28;20045;-77
2023/12/20 20:38:47;;;;;;;16.08;14.98;;;;;;;7.51;100.00;100254.66;10421544;28;20048;-75
2023/12/20 20:43:48;;;;;;;16.77;15.88;;;;;;;7.59;100.00;100234.25;10404629;28;20076;-75
2023/12/20 20:48:48;;;;;;;18.48;17.23;;;;;;;7.34;100.00;100174.41;10436450;28;20124;-75
2023/12/20 20:53:49;;;;;;;18.38;17.38;;;;;;;7.65;100.00;100214.06;10420848;28;20045;-75
2023/12/20 20:58:52;;;;;;;18.77;17.50;;;;;;;7.62;100.00;100187.97;10419279;28;20067;-75
2023/12/20 21:03:52;;;;;;;17.85;16.83;;;;;;;7.68;100.00;100183.41;10419064;28;20112;-74
2023/12/20 21:08:53;;;;;;;17.95;16.15;;;;;;;7.62;100.00;100170.72;10418687;28;20099;-75
2023/12/20 21:13:54;;;;;;;17.98;16.73;;;;;;;7.75;100.00;100191.44;10404534;28;20048;-73
2023/12/20 21:18:54;;;;;;;19.55;18.33;;;;;;;7.78;100.00;100202.75;10419682;28;20045;-75
2023/12/20 21:23:56;;;;;;;20.35;18.60;;;;;;;7.79;100.00;100204.41;10420632;28;20095;-71
2023/12/20 21:28:56;;;;;;;21.20;19.42;;;;;;;7.84;100.00;100209.94;10417694;28;20052;-71
2023/12/20 21:33:57;;;;;;;21.92;20.10;;;;;;;7.86;100.00;100218.75;10400191;28;20057;-75
2023/12/20 21:38:58;;;;;;;22.35;20.50;;;;;;;7.86;100.00;100205.03;10419930;28;20038;-75
2023/12/20 21:43:58;;;;;;;22.63;20.70;;;;;;;7.91;100.00;100211.69;10419339;28;20050;-74
2023/12/20 21:48:59;;;;;;;26.77;20.90;;;;;;;7.91;100.00;100211.69;10411846;28;20063;-76
2023/12/20 21:54:03;;;;;;;25.02;22.73;;;;;;;7.91;100.00;100193.31;10419142;28;20172;-75
2023/12/20 21:59:03;;;;;;;27.52;20.98;;;;;;;7.92;100.00;100191.41;10414328;28;20101;-76
2023/12/20 22:04:04;;;;;;;25.20;21.90;;;;;;;7.96;100.00;100189.81;10416945;28;20037;-76
2023/12/20 22:09:04;;;;;;;25.25;22.70;;;;;;;7.92;100.00;100185.91;10416094;28;20071;-75
2023/12/20 22:14:05;;;;;;;26.58;23.77;;;;;;;8.05;100.00;100202.00;10415628;28;20045;-74
2023/12/20 22:19:05;;;;;;;31.42;25.55;;;;;;;7.77;100.00;100143.56;10418552;28;20048;-75
2023/12/20 22:24:06;;;;;;;28.70;24.85;;;;;;;8.01;100.00;100167.97;10417750;28;20144;-75
2023/12/20 22:29:06;;;;;;;27.15;24.50;;;;;;;8.03;100.00;100146.59;10415933;28;20052;-72
2023/12/20 22:34:07;;;;;;;28.23;24.58;;;;;;;8.06;100.00;100137.84;10416334;28;20045;-75
2023/12/20 22:39:07;;;;;;;29.00;25.90;;;;;;;8.04;100.00;100143.63;10416083;28;20140;-74